createdAt,value
2022-09-23T00:16:24.359Z,91.5
2022-09-23T00:35:43.774Z,91.6
2022-09-23T00:55:48.253Z,91.9
2022-09-23T01:16:59.116Z,92.2
2022-09-23T01:36:55.707Z,92.6
2022-09-23T01:57:00.544Z,92.5
2022-09-23T02:16:30.700Z,92.6
2022-09-23T02:35:42.552Z,93
2022-09-23T03:16:15.051Z,93.2
2022-09-23T03:36:37.502Z,93.3
2022-09-23T03:56:03.720Z,93.5
2022-09-23T04:16:13.971Z,93.7
2022-09-23T04:37:02.990Z,93.8
2022-09-23T04:56:55.910Z,93.7
2022-09-23T05:16:27.257Z,93.7
2022-09-23T05:36:54.424Z,93.9
2022-09-23T05:57:19.247Z,93.8
2022-09-23T06:16:41.483Z,93.2
2022-09-23T06:37:27.700Z,92.5
2022-09-23T06:56:41.971Z,92.3
2022-09-23T07:15:49.494Z,91.1
2022-09-23T07:36:44.279Z,88.2
2022-09-23T07:56:43.997Z,85.5
2022-09-23T08:15:55.574Z,81.9
2022-09-23T08:37:03.903Z,77.9
2022-09-23T08:56:24.218Z,76.7
2022-09-23T09:15:58.274Z,72.9
2022-09-23T09:36:50.231Z,69.1
2022-09-23T09:57:25.063Z,66
2022-09-23T10:16:34.812Z,62.6
2022-09-23T10:35:56.784Z,57.9
2022-09-23T10:57:24.708Z,55.2
2022-09-23T11:17:21.742Z,50.8
2022-09-23T11:37:16.965Z,50.5
2022-09-23T11:56:10.330Z,47
2022-09-23T12:15:47.849Z,45.3
2022-09-23T12:35:43.602Z,41
2022-09-23T13:17:05.036Z,40.2
2022-09-23T13:36:46.409Z,37.6
2022-09-23T13:57:05.851Z,40.5
2022-09-23T14:16:53.918Z,37.8
2022-09-23T14:36:41.947Z,40.6
2022-09-23T14:56:57.072Z,41
2022-09-23T15:16:18.039Z,44.2
2022-09-23T15:36:38.984Z,44.7
2022-09-23T15:56:59.317Z,47.6
2022-09-23T16:17:33.723Z,47
2022-09-23T16:36:44.859Z,49.6
2022-09-23T16:56:01.942Z,56.5
2022-09-23T17:15:56.301Z,62.4
2022-09-23T17:36:42.600Z,66.6
2022-09-23T17:56:48.693Z,69.3
2022-09-23T18:16:51.279Z,72.1
2022-09-23T18:37:00.377Z,75.2
2022-09-23T18:57:36.284Z,77.8
2022-09-23T19:15:55.833Z,80.5
2022-09-23T19:36:06.369Z,82.4
2022-09-23T19:56:06.807Z,83.6
2022-09-23T20:17:04.660Z,84
2022-09-23T20:36:00.157Z,84.5
2022-09-23T20:56:35.521Z,85.1
2022-09-23T21:16:22.612Z,84.7
2022-09-23T21:35:52.896Z,84.2
2022-09-23T21:57:07.794Z,84.6
2022-09-23T22:16:38.269Z,85
2022-09-23T22:36:50.763Z,84.9
2022-09-23T22:56:37.231Z,85.1
2022-09-23T23:16:11.049Z,85.4
2022-09-23T23:36:05.813Z,86.6
2022-09-23T23:57:23.319Z,87.1
